Eau Claire, WI (54703)

7:58 AM CDT on April 28, 2017 (GMT -0500)
Rowe St. & Cornell St. | | Change Station

Elev 849 ft 44.84 °N, 91.49 °W | Updated 8 seconds ago

Overcast
Overcast
37.4 °F
Feels Like 33 °F
N
5.4
Wind Variable Wind from West
Gusts 6.9 mph

Today
High -- | Low -- °F
--% Chance of Precip.
Yesterday
High -- | Low -- °F
Precip. -- in
Pressure 29.88 in
Visibility 10.0 miles
Clouds Overcast 3200 ft
Windchill 33 °F
Dew Point 30 °F
Humidity 73%
Rainfall 0.00 in
Snow Depth Not available.
5:59 AM 8:07 PM
Waxing Crescent, 6% visible
METAR KEAU 281156Z 24004KT 10SM OVC032 01/M02 A2985 RMK AO2 SLP116 T00111022 10011 20006 51013
Pressure 29.88 in
Visibility 10.0 miles
Clouds Overcast 3200 ft
Windchill 33 °F
Dew Point 30 °F
Humidity 73%
Rainfall 0.00 in
Snow Depth Not available.
5:59 AM 8:07 PM
Waxing Crescent, 6% visible
METAR KEAU 281156Z 24004KT 10SM OVC032 01/M02 A2985 RMK AO2 SLP116 T00111022 10011 20006 51013

Get Severe Weather Alerts

Thanks for signing up!

Be on the lookout for a verification email in your inbox.

You'll start receiving the daily forecast at 8 AM.

×

10-Day Weather Forecast

Almanac

Astronomy

Apr. 28, 2017 Rise Set
Actual Time
Civil Twilight
Nautical Twilight
Astronomical Twilight
Moon
Length of Visible Light
Length of Day
Tomorrow will be .
, % of the Moon is Illuminated

Today's Extremes

State Highs State Lows

Community

WunderPhotos

WunderBlog® & News

Nearby

Air Quality

  Air Quality AQ Index Pollutant
Not available.

Snow Depth

Station Depth Elevation

Earthquake Activity

City Distance Mag. Time & Date
Minimum magnitude displayed is 2.5.

Coastal Water Temperatures

Place Temperature

Stations

Nearby Weather Stations

Station Location Temp. Windchill Dew Point Humidity Wind Precip. Elev Updated Type
                   

Watches & Warnings

There are currently no watches in effect.